Terminal Aerodrome Forecast
Issued by NWS

Home | Current Version | Previous Version | Text Only | Print | Product List | Glossary On
Versions: 1 2 3 4 5 6 7 8 9 10 11 12 13 14 15 16 17 18 19 20
000
FTUS41 KBTV 250901 AAB
TAFSLK
TAF AMD
KSLK 250901Z 2509/2606 23020G37KT 3SM RA BR SCT008 OVC018
     FM251300 24025G42KT P6SM -SHRA BKN028 OVC035
     FM251700 24025G40KT P6SM -SHRASN OVC035
     FM252300 26020G35KT P6SM VCSH SCT020 OVC030=

USA.gov is the U.S. government's official web portal to all federal, state and local government web resources and services.